sensor_id;sensor_type;location;lat;lon;timestamp;P1;durP1;ratioP1;P2;durP2;ratioP2
6679;SDS011;3376;42.664;23.346;2023-04-01T00:01:53;9.00;;;8.13;;
6679;SDS011;3376;42.664;23.346;2023-04-01T00:04:20;13.90;;;9.40;;
6679;SDS011;3376;42.664;23.346;2023-04-01T00:06:47;13.03;;;10.50;;
6679;SDS011;3376;42.664;23.346;2023-04-01T00:09:15;14.20;;;11.90;;
6679;SDS011;3376;42.664;23.346;2023-04-01T00:11:42;17.43;;;13.20;;
6679;SDS011;3376;42.664;23.346;2023-04-01T00:14:10;20.40;;;15.63;;
6679;SDS011;3376;42.664;23.346;2023-04-01T00:16:37;19.17;;;12.27;;
6679;SDS011;3376;42.664;23.346;2023-04-01T00:19:04;16.30;;;13.53;;
6679;SDS011;3376;42.664;23.346;2023-04-01T00:21:31;16.10;;;12.47;;
6679;SDS011;3376;42.664;23.346;2023-04-01T00:23:58;17.57;;;11.30;;
6679;SDS011;3376;42.664;23.346;2023-04-01T00:26:26;15.87;;;12.17;;
6679;SDS011;3376;42.664;23.346;2023-04-01T00:28:53;16.40;;;11.93;;
6679;SDS011;3376;42.664;23.346;2023-04-01T00:31:20;12.83;;;11.53;;
6679;SDS011;3376;42.664;23.346;2023-04-01T00:33:47;12.30;;;11.07;;
6679;SDS011;3376;42.664;23.346;2023-04-01T00:36:15;23.00;;;11.90;;
6679;SDS011;3376;42.664;23.346;2023-04-01T00:38:44;16.23;;;10.83;;
6679;SDS011;3376;42.664;23.346;2023-04-01T00:41:11;11.40;;;10.53;;
6679;SDS011;3376;42.664;23.346;2023-04-01T00:43:42;12.03;;;10.77;;
6679;SDS011;3376;42.664;23.346;2023-04-01T00:46:10;12.83;;;10.70;;
6679;SDS011;3376;42.664;23.346;2023-04-01T00:48:38;14.43;;;10.17;;
6679;SDS011;3376;42.664;23.346;2023-04-01T00:51:09;10.70;;;9.63;;
6679;SDS011;3376;42.664;23.346;2023-04-01T00:53:39;12.23;;;9.80;;
6679;SDS011;3376;42.664;23.346;2023-04-01T00:56:10;10.00;;;9.10;;
6679;SDS011;3376;42.664;23.346;2023-04-01T00:58:42;11.27;;;10.10;;
6679;SDS011;3376;42.664;23.346;2023-04-01T01:01:14;10.87;;;9.40;;
6679;SDS011;3376;42.664;23.346;2023-04-01T01:03:42;16.63;;;8.57;;
6679;SDS011;3376;42.664;23.346;2023-04-01T01:06:15;10.13;;;8.37;;
6679;SDS011;3376;42.664;23.346;2023-04-01T01:08:52;8.10;;;7.27;;
6679;SDS011;3376;42.664;23.346;2023-04-01T01:11:35;9.70;;;8.60;;
6679;SDS011;3376;42.664;23.346;2023-04-01T01:14:09;11.37;;;8.07;;
6679;SDS011;3376;42.664;23.346;2023-04-01T01:16:46;8.70;;;7.90;;
6679;SDS011;3376;42.664;23.346;2023-04-01T01:19:23;7.93;;;7.33;;
6679;SDS011;3376;42.664;23.346;2023-04-01T01:22:17;9.60;;;8.60;;
6679;SDS011;3376;42.664;23.346;2023-04-01T01:25:10;7.87;;;7.13;;
6679;SDS011;3376;42.664;23.346;2023-04-01T01:27:48;9.17;;;7.27;;
6679;SDS011;3376;42.664;23.346;2023-04-01T01:30:26;7.03;;;6.43;;
6679;SDS011;3376;42.664;23.346;2023-04-01T01:33:07;6.77;;;6.10;;
6679;SDS011;3376;42.664;23.346;2023-04-01T01:35:47;7.30;;;6.77;;
6679;SDS011;3376;42.664;23.346;2023-04-01T01:38:17;8.07;;;6.77;;
6679;SDS011;3376;42.664;23.346;2023-04-01T01:40:48;7.43;;;6.80;;
6679;SDS011;3376;42.664;23.346;2023-04-01T01:43:19;11.33;;;7.03;;
6679;SDS011;3376;42.664;23.346;2023-04-01T01:45:50;8.97;;;7.23;;
6679;SDS011;3376;42.664;23.346;2023-04-01T01:48:20;7.70;;;6.90;;
6679;SDS011;3376;42.664;23.346;2023-04-01T01:50:49;6.50;;;5.80;;
6679;SDS011;3376;42.664;23.346;2023-04-01T01:53:17;8.17;;;5.73;;
6679;SDS011;3376;42.664;23.346;2023-04-01T01:55:44;6.93;;;6.40;;
6679;SDS011;3376;42.664;23.346;2023-04-01T01:58:13;6.20;;;5.70;;
6679;SDS011;3376;42.664;23.346;2023-04-01T02:00:46;7.93;;;5.60;;
6679;SDS011;3376;42.664;23.346;2023-04-01T02:03:19;5.93;;;5.53;;
6679;SDS011;3376;42.664;23.346;2023-04-01T02:05:49;6.77;;;6.07;;
6679;SDS011;3376;42.664;23.346;2023-04-01T02:08:19;9.63;;;6.57;;
6679;SDS011;3376;42.664;23.346;2023-04-01T02:10:50;6.77;;;6.20;;
6679;SDS011;3376;42.664;23.346;2023-04-01T02:13:23;6.47;;;5.87;;
6679;SDS011;3376;42.664;23.346;2023-04-01T02:15:54;6.37;;;5.97;;
6679;SDS011;3376;42.664;23.346;2023-04-01T02:18:25;7.10;;;6.53;;
6679;SDS011;3376;42.664;23.346;2023-04-01T02:20:53;8.67;;;7.83;;
6679;SDS011;3376;42.664;23.346;2023-04-01T02:23:22;9.00;;;6.73;;
6679;SDS011;3376;42.664;23.346;2023-04-01T02:25:49;8.30;;;6.17;;
6679;SDS011;3376;42.664;23.346;2023-04-01T02:28:17;7.57;;;5.80;;
6679;SDS011;3376;42.664;23.346;2023-04-01T02:30:45;6.57;;;6.10;;
6679;SDS011;3376;42.664;23.346;2023-04-01T02:33:14;11.63;;;7.00;;
6679;SDS011;3376;42.664;23.346;2023-04-01T02:35:41;6.80;;;6.13;;
6679;SDS011;3376;42.664;23.346;2023-04-01T02:38:10;6.87;;;6.20;;
6679;SDS011;3376;42.664;23.346;2023-04-01T02:40:43;8.83;;;6.50;;
6679;SDS011;3376;42.664;23.346;2023-04-01T02:43:12;8.43;;;6.23;;
6679;SDS011;3376;42.664;23.346;2023-04-01T02:45:39;9.37;;;6.53;;
6679;SDS011;3376;42.664;23.346;2023-04-01T02:48:06;9.33;;;5.40;;
6679;SDS011;3376;42.664;23.346;2023-04-01T02:50:32;7.43;;;6.47;;
6679;SDS011;3376;42.664;23.346;2023-04-01T02:52:59;9.43;;;4.33;;
6679;SDS011;3376;42.664;23.346;2023-04-01T02:55:29;5.93;;;4.80;;
6679;SDS011;3376;42.664;23.346;2023-04-01T02:57:56;8.50;;;5.77;;
6679;SDS011;3376;42.664;23.346;2023-04-01T03:00:23;7.67;;;5.20;;
6679;SDS011;3376;42.664;23.346;2023-04-01T03:02:50;8.40;;;4.90;;
6679;SDS011;3376;42.664;23.346;2023-04-01T03:05:17;6.17;;;5.50;;
6679;SDS011;3376;42.664;23.346;2023-04-01T03:07:44;6.60;;;5.10;;
6679;SDS011;3376;42.664;23.346;2023-04-01T03:10:10;5.97;;;5.37;;
6679;SDS011;3376;42.664;23.346;2023-04-01T03:12:39;5.90;;;5.50;;
6679;SDS011;3376;42.664;23.346;2023-04-01T03:15:06;10.23;;;6.20;;
6679;SDS011;3376;42.664;23.346;2023-04-01T03:17:35;7.20;;;5.77;;
6679;SDS011;3376;42.664;23.346;2023-04-01T03:20:01;7.27;;;6.00;;
6679;SDS011;3376;42.664;23.346;2023-04-01T03:22:30;9.50;;;5.90;;
6679;SDS011;3376;42.664;23.346;2023-04-01T03:24:56;8.63;;;6.03;;
6679;SDS011;3376;42.664;23.346;2023-04-01T03:27:23;11.10;;;7.10;;
6679;SDS011;3376;42.664;23.346;2023-04-01T03:29:51;7.93;;;7.23;;
6679;SDS011;3376;42.664;23.346;2023-04-01T03:32:18;7.63;;;6.70;;
6679;SDS011;3376;42.664;23.346;2023-04-01T03:34:45;11.83;;;6.73;;
6679;SDS011;3376;42.664;23.346;2023-04-01T03:37:11;11.07;;;6.30;;
6679;SDS011;3376;42.664;23.346;2023-04-01T03:39:39;6.97;;;6.47;;
6679;SDS011;3376;42.664;23.346;2023-04-01T03:42:05;9.90;;;6.50;;
6679;SDS011;3376;42.664;23.346;2023-04-01T03:44:32;7.20;;;6.20;;
6679;SDS011;3376;42.664;23.346;2023-04-01T03:47:01;7.97;;;7.23;;
6679;SDS011;3376;42.664;23.346;2023-04-01T03:49:28;9.07;;;7.10;;
6679;SDS011;3376;42.664;23.346;2023-04-01T03:51:57;10.93;;;7.67;;
6679;SDS011;3376;42.664;23.346;2023-04-01T03:54:24;7.63;;;6.90;;
6679;SDS011;3376;42.664;23.346;2023-04-01T03:56:51;14.53;;;7.53;;
6679;SDS011;3376;42.664;23.346;2023-04-01T03:59:18;9.57;;;7.00;;
6679;SDS011;3376;42.664;23.346;2023-04-01T04:01:46;7.53;;;6.87;;
6679;SDS011;3376;42.664;23.346;2023-04-01T04:04:14;10.80;;;7.53;;
6679;SDS011;3376;42.664;23.346;2023-04-01T04:06:41;7.07;;;6.37;;
6679;SDS011;3376;42.664;23.346;2023-04-01T04:09:08;11.73;;;6.47;;
6679;SDS011;3376;42.664;23.346;2023-04-01T04:11:34;7.80;;;7.00;;
6679;SDS011;3376;42.664;23.346;2023-04-01T04:14:01;15.43;;;7.40;;
6679;SDS011;3376;42.664;23.346;2023-04-01T04:16:28;12.50;;;7.43;;
6679;SDS011;3376;42.664;23.346;2023-04-01T04:18:55;11.77;;;8.27;;
6679;SDS011;3376;42.664;23.346;2023-04-01T04:21:23;8.67;;;6.77;;
6679;SDS011;3376;42.664;23.346;2023-04-01T04:23:50;9.27;;;7.03;;
6679;SDS011;3376;42.664;23.346;2023-04-01T04:26:17;8.30;;;7.50;;
6679;SDS011;3376;42.664;23.346;2023-04-01T04:28:44;8.30;;;7.63;;
6679;SDS011;3376;42.664;23.346;2023-04-01T04:31:11;13.47;;;7.40;;
6679;SDS011;3376;42.664;23.346;2023-04-01T04:33:38;8.53;;;6.27;;
6679;SDS011;3376;42.664;23.346;2023-04-01T04:36:05;7.47;;;6.97;;
6679;SDS011;3376;42.664;23.346;2023-04-01T04:38:33;7.60;;;7.03;;
6679;SDS011;3376;42.664;23.346;2023-04-01T04:41:00;8.43;;;6.63;;
6679;SDS011;3376;42.664;23.346;2023-04-01T04:43:27;9.67;;;6.13;;
6679;SDS011;3376;42.664;23.346;2023-04-01T04:45:53;7.20;;;6.60;;
6679;SDS011;3376;42.664;23.346;2023-04-01T04:48:20;8.03;;;7.20;;
6679;SDS011;3376;42.664;23.346;2023-04-01T04:50:47;8.67;;;6.60;;
6679;SDS011;3376;42.664;23.346;2023-04-01T04:53:15;7.77;;;6.20;;
6679;SDS011;3376;42.664;23.346;2023-04-01T04:55:45;9.77;;;6.90;;
6679;SDS011;3376;42.664;23.346;2023-04-01T04:58:12;7.93;;;7.00;;
6679;SDS011;3376;42.664;23.346;2023-04-01T05:00:39;11.10;;;8.07;;
6679;SDS011;3376;42.664;23.346;2023-04-01T05:03:06;7.27;;;6.77;;
6679;SDS011;3376;42.664;23.346;2023-04-01T05:05:33;13.17;;;7.43;;
6679;SDS011;3376;42.664;23.346;2023-04-01T05:08:00;11.37;;;7.53;;
6679;SDS011;3376;42.664;23.346;2023-04-01T05:10:27;9.13;;;6.83;;
6679;SDS011;3376;42.664;23.346;2023-04-01T05:12:55;8.57;;;7.73;;
6679;SDS011;3376;42.664;23.346;2023-04-01T05:15:22;7.83;;;7.23;;
6679;SDS011;3376;42.664;23.346;2023-04-01T05:17:49;8.30;;;7.20;;
6679;SDS011;3376;42.664;23.346;2023-04-01T05:20:16;16.77;;;7.80;;
6679;SDS011;3376;42.664;23.346;2023-04-01T05:22:43;8.67;;;7.80;;
6679;SDS011;3376;42.664;23.346;2023-04-01T05:25:10;11.53;;;7.73;;
6679;SDS011;3376;42.664;23.346;2023-04-01T05:27:37;8.53;;;7.70;;
6679;SDS011;3376;42.664;23.346;2023-04-01T05:30:06;6.93;;;6.33;;
6679;SDS011;3376;42.664;23.346;2023-04-01T05:32:33;8.77;;;7.30;;
6679;SDS011;3376;42.664;23.346;2023-04-01T05:35:00;12.73;;;6.77;;
6679;SDS011;3376;42.664;23.346;2023-04-01T05:37:26;9.27;;;6.97;;
6679;SDS011;3376;42.664;23.346;2023-04-01T05:39:53;11.10;;;7.33;;
6679;SDS011;3376;42.664;23.346;2023-04-01T05:42:20;9.70;;;6.90;;
6679;SDS011;3376;42.664;23.346;2023-04-01T05:44:47;11.20;;;7.17;;
6679;SDS011;3376;42.664;23.346;2023-04-01T05:47:15;12.17;;;7.73;;
6679;SDS011;3376;42.664;23.346;2023-04-01T05:49:42;6.87;;;6.30;;
6679;SDS011;3376;42.664;23.346;2023-04-01T05:52:08;10.90;;;6.87;;
6679;SDS011;3376;42.664;23.346;2023-04-01T05:54:35;7.83;;;5.77;;
6679;SDS011;3376;42.664;23.346;2023-04-01T05:57:02;7.93;;;6.03;;
6679;SDS011;3376;42.664;23.346;2023-04-01T05:59:29;7.83;;;7.00;;
6679;SDS011;3376;42.664;23.346;2023-04-01T06:01:57;7.30;;;6.57;;
6679;SDS011;3376;42.664;23.346;2023-04-01T06:04:26;9.40;;;6.43;;
6679;SDS011;3376;42.664;23.346;2023-04-01T06:06:59;5.90;;;5.30;;
6679;SDS011;3376;42.664;23.346;2023-04-01T06:09:26;5.83;;;5.33;;
6679;SDS011;3376;42.664;23.346;2023-04-01T06:12:18;6.30;;;5.80;;
6679;SDS011;3376;42.664;23.346;2023-04-01T06:14:56;7.23;;;5.27;;
6679;SDS011;3376;42.664;23.346;2023-04-01T06:17:40;6.70;;;4.83;;
6679;SDS011;3376;42.664;23.346;2023-04-01T06:20:19;4.83;;;4.43;;
6679;SDS011;3376;42.664;23.346;2023-04-01T06:23:10;5.13;;;4.27;;
6679;SDS011;3376;42.664;23.346;2023-04-01T06:26:09;8.10;;;4.53;;
6679;SDS011;3376;42.664;23.346;2023-04-01T06:28:47;6.73;;;4.80;;
6679;SDS011;3376;42.664;23.346;2023-04-01T06:31:38;4.50;;;4.30;;
6679;SDS011;3376;42.664;23.346;2023-04-01T06:34:21;10.93;;;4.93;;
6679;SDS011;3376;42.664;23.346;2023-04-01T06:37:06;7.90;;;4.70;;
6679;SDS011;3376;42.664;23.346;2023-04-01T06:39:59;5.80;;;4.30;;
6679;SDS011;3376;42.664;23.346;2023-04-01T06:42:41;5.60;;;5.20;;
6679;SDS011;3376;42.664;23.346;2023-04-01T06:45:19;6.07;;;5.77;;
6679;SDS011;3376;42.664;23.346;2023-04-01T06:48:03;7.47;;;6.80;;
6679;SDS011;3376;42.664;23.346;2023-04-01T06:50:48;7.10;;;5.93;;
6679;SDS011;3376;42.664;23.346;2023-04-01T06:53:28;11.60;;;5.63;;
6679;SDS011;3376;42.664;23.346;2023-04-01T06:56:02;7.40;;;5.67;;
6679;SDS011;3376;42.664;23.346;2023-04-01T06:58:34;6.40;;;5.50;;
6679;SDS011;3376;42.664;23.346;2023-04-01T07:01:06;8.17;;;5.87;;
6679;SDS011;3376;42.664;23.346;2023-04-01T07:03:35;6.00;;;5.70;;
6679;SDS011;3376;42.664;23.346;2023-04-01T07:06:06;7.00;;;5.10;;
6679;SDS011;3376;42.664;23.346;2023-04-01T07:08:40;6.97;;;5.27;;
6679;SDS011;3376;42.664;23.346;2023-04-01T07:11:11;6.50;;;5.90;;
6679;SDS011;3376;42.664;23.346;2023-04-01T07:13:48;7.83;;;5.60;;
6679;SDS011;3376;42.664;23.346;2023-04-01T07:16:18;4.80;;;4.47;;
6679;SDS011;3376;42.664;23.346;2023-04-01T07:18:52;6.43;;;5.93;;
6679;SDS011;3376;42.664;23.346;2023-04-01T07:21:25;6.07;;;5.17;;
6679;SDS011;3376;42.664;23.346;2023-04-01T07:23:59;5.67;;;5.17;;
6679;SDS011;3376;42.664;23.346;2023-04-01T07:26:29;6.20;;;5.60;;
6679;SDS011;3376;42.664;23.346;2023-04-01T07:28:56;5.40;;;4.83;;
6679;SDS011;3376;42.664;23.346;2023-04-01T07:31:27;5.87;;;4.93;;
6679;SDS011;3376;42.664;23.346;2023-04-01T07:34:08;5.10;;;4.63;;
6679;SDS011;3376;42.664;23.346;2023-04-01T07:36:45;6.13;;;4.57;;
6679;SDS011;3376;42.664;23.346;2023-04-01T07:39:22;4.80;;;4.40;;
6679;SDS011;3376;42.664;23.346;2023-04-01T07:41:57;6.00;;;4.40;;
6679;SDS011;3376;42.664;23.346;2023-04-01T07:44:34;10.00;;;4.70;;
6679;SDS011;3376;42.664;23.346;2023-04-01T07:47:11;6.27;;;5.13;;
6679;SDS011;3376;42.664;23.346;2023-04-01T07:49:52;10.87;;;5.67;;
6679;SDS011;3376;42.664;23.346;2023-04-01T07:52:30;5.33;;;4.50;;
6679;SDS011;3376;42.664;23.346;2023-04-01T07:55:08;9.73;;;5.40;;
6679;SDS011;3376;42.664;23.346;2023-04-01T07:57:41;7.73;;;4.77;;
6679;SDS011;3376;42.664;23.346;2023-04-01T08:00:16;7.90;;;4.60;;
6679;SDS011;3376;42.664;23.346;2023-04-01T08:03:03;8.10;;;5.23;;
6679;SDS011;3376;42.664;23.346;2023-04-01T08:05:46;9.37;;;4.60;;
6679;SDS011;3376;42.664;23.346;2023-04-01T08:08:23;12.93;;;4.90;;
6679;SDS011;3376;42.664;23.346;2023-04-01T08:11:00;5.57;;;4.47;;
6679;SDS011;3376;42.664;23.346;2023-04-01T08:13:34;7.00;;;4.87;;
6679;SDS011;3376;42.664;23.346;2023-04-01T08:16:09;4.47;;;4.07;;
6679;SDS011;3376;42.664;23.346;2023-04-01T08:18:45;9.13;;;4.73;;
6679;SDS011;3376;42.664;23.346;2023-04-01T08:21:16;6.57;;;5.93;;
6679;SDS011;3376;42.664;23.346;2023-04-01T08:23:48;12.70;;;6.90;;
6679;SDS011;3376;42.664;23.346;2023-04-01T08:26:22;6.50;;;4.87;;
6679;SDS011;3376;42.664;23.346;2023-04-01T08:28:56;13.23;;;4.43;;
6679;SDS011;3376;42.664;23.346;2023-04-01T08:31:29;8.93;;;4.53;;
6679;SDS011;3376;42.664;23.346;2023-04-01T08:34:00;8.70;;;4.70;;
6679;SDS011;3376;42.664;23.346;2023-04-01T08:36:31;7.00;;;4.20;;
6679;SDS011;3376;42.664;23.346;2023-04-01T08:39:02;4.93;;;4.13;;
6679;SDS011;3376;42.664;23.346;2023-04-01T08:41:42;4.30;;;4.03;;
6679;SDS011;3376;42.664;23.346;2023-04-01T08:44:42;6.33;;;4.20;;
6679;SDS011;3376;42.664;23.346;2023-04-01T08:47:38;7.97;;;4.60;;
6679;SDS011;3376;42.664;23.346;2023-04-01T08:50:31;5.80;;;4.30;;
6679;SDS011;3376;42.664;23.346;2023-04-01T08:53:11;4.13;;;3.80;;
6679;SDS011;3376;42.664;23.346;2023-04-01T08:55:51;5.47;;;4.30;;
6679;SDS011;3376;42.664;23.346;2023-04-01T08:58:42;6.17;;;4.80;;
6679;SDS011;3376;42.664;23.346;2023-04-01T09:04:25;5.63;;;4.30;;
6679;SDS011;3376;42.664;23.346;2023-04-01T09:07:13;7.90;;;4.47;;
6679;SDS011;3376;42.664;23.346;2023-04-01T09:09:56;6.43;;;4.57;;
6679;SDS011;3376;42.664;23.346;2023-04-01T09:12:51;7.43;;;3.33;;
6679;SDS011;3376;42.664;23.346;2023-04-01T09:15:36;5.30;;;3.87;;
6679;SDS011;3376;42.664;23.346;2023-04-01T09:21:18;4.87;;;3.30;;
6679;SDS011;3376;42.664;23.346;2023-04-01T09:23:55;3.30;;;3.00;;
6679;SDS011;3376;42.664;23.346;2023-04-01T09:29:53;5.77;;;3.43;;
6679;SDS011;3376;42.664;23.346;2023-04-01T09:33:00;5.20;;;2.80;;
6679;SDS011;3376;42.664;23.346;2023-04-01T09:35:50;4.03;;;3.27;;
6679;SDS011;3376;42.664;23.346;2023-04-01T09:38:29;7.27;;;3.10;;
6679;SDS011;3376;42.664;23.346;2023-04-01T09:41:07;4.13;;;3.10;;
6679;SDS011;3376;42.664;23.346;2023-04-01T09:43:51;4.70;;;3.43;;
6679;SDS011;3376;42.664;23.346;2023-04-01T09:46:28;3.87;;;3.10;;
6679;SDS011;3376;42.664;23.346;2023-04-01T09:52:24;6.57;;;3.17;;
6679;SDS011;3376;42.664;23.346;2023-04-01T09:55:04;3.80;;;3.03;;
6679;SDS011;3376;42.664;23.346;2023-04-01T09:57:58;4.60;;;2.67;;
6679;SDS011;3376;42.664;23.346;2023-04-01T10:10:34;4.57;;;3.33;;
6679;SDS011;3376;42.664;23.346;2023-04-01T10:16:15;3.50;;;3.17;;
6679;SDS011;3376;42.664;23.346;2023-04-01T10:28:33;4.40;;;3.43;;
6679;SDS011;3376;42.664;23.346;2023-04-01T10:37:23;3.07;;;2.83;;
6679;SDS011;3376;42.664;23.346;2023-04-01T10:40:39;3.57;;;3.23;;
6679;SDS011;3376;42.664;23.346;2023-04-01T10:53:18;6.60;;;3.43;;
6679;SDS011;3376;42.664;23.346;2023-04-01T11:05:17;5.47;;;3.43;;
6679;SDS011;3376;42.664;23.346;2023-04-01T11:11:35;4.63;;;3.80;;
6679;SDS011;3376;42.664;23.346;2023-04-01T11:14:31;3.90;;;2.97;;
6679;SDS011;3376;42.664;23.346;2023-04-01T11:17:21;3.87;;;3.57;;
6679;SDS011;3376;42.664;23.346;2023-04-01T11:20:07;9.07;;;3.20;;
6679;SDS011;3376;42.664;23.346;2023-04-01T11:22:58;8.37;;;3.63;;
6679;SDS011;3376;42.664;23.346;2023-04-01T11:25:47;3.03;;;2.33;;
6679;SDS011;3376;42.664;23.346;2023-04-01T11:28:30;2.67;;;2.10;;
6679;SDS011;3376;42.664;23.346;2023-04-01T11:34:13;4.93;;;1.90;;
6679;SDS011;3376;42.664;23.346;2023-04-01T11:36:48;5.67;;;2.00;;
6679;SDS011;3376;42.664;23.346;2023-04-01T11:39:29;5.83;;;2.20;;
6679;SDS011;3376;42.664;23.346;2023-04-01T11:42:07;3.50;;;2.00;;
6679;SDS011;3376;42.664;23.346;2023-04-01T11:44:46;2.93;;;1.83;;
6679;SDS011;3376;42.664;23.346;2023-04-01T11:47:28;5.67;;;1.93;;
6679;SDS011;3376;42.664;23.346;2023-04-01T11:50:18;74.30;;;5.47;;
6679;SDS011;3376;42.664;23.346;2023-04-01T11:52:54;4.33;;;2.13;;
6679;SDS011;3376;42.664;23.346;2023-04-01T11:55:32;4.73;;;2.43;;
6679;SDS011;3376;42.664;23.346;2023-04-01T11:58:12;2.73;;;1.93;;
6679;SDS011;3376;42.664;23.346;2023-04-01T12:06:54;3.83;;;2.40;;
6679;SDS011;3376;42.664;23.346;2023-04-01T12:09:30;3.13;;;2.03;;
6679;SDS011;3376;42.664;23.346;2023-04-01T12:12:10;4.47;;;2.60;;
6679;SDS011;3376;42.664;23.346;2023-04-01T12:14:47;5.20;;;2.37;;
6679;SDS011;3376;42.664;23.346;2023-04-01T12:17:27;4.30;;;2.80;;
6679;SDS011;3376;42.664;23.346;2023-04-01T12:20:03;3.40;;;3.20;;
6679;SDS011;3376;42.664;23.346;2023-04-01T12:22:53;3.87;;;3.33;;
6679;SDS011;3376;42.664;23.346;2023-04-01T12:25:36;4.53;;;2.93;;
6679;SDS011;3376;42.664;23.346;2023-04-01T12:28:18;3.03;;;2.83;;
6679;SDS011;3376;42.664;23.346;2023-04-01T12:30:57;2.30;;;2.20;;
6679;SDS011;3376;42.664;23.346;2023-04-01T12:36:35;2.90;;;2.73;;
6679;SDS011;3376;42.664;23.346;2023-04-01T12:39:17;3.73;;;2.87;;
6679;SDS011;3376;42.664;23.346;2023-04-01T12:41:59;5.40;;;3.80;;
6679;SDS011;3376;42.664;23.346;2023-04-01T12:44:46;4.23;;;3.77;;
6679;SDS011;3376;42.664;23.346;2023-04-01T12:50:31;4.00;;;3.47;;
6679;SDS011;3376;42.664;23.346;2023-04-01T12:53:16;3.97;;;3.57;;
6679;SDS011;3376;42.664;23.346;2023-04-01T12:56:06;6.60;;;4.97;;
6679;SDS011;3376;42.664;23.346;2023-04-01T12:58:53;4.50;;;4.10;;
6679;SDS011;3376;42.664;23.346;2023-04-01T13:01:42;4.47;;;4.00;;
6679;SDS011;3376;42.664;23.346;2023-04-01T13:10:38;3.23;;;2.93;;
6679;SDS011;3376;42.664;23.346;2023-04-01T13:13:33;3.53;;;3.27;;
6679;SDS011;3376;42.664;23.346;2023-04-01T13:16:11;5.40;;;3.30;;
6679;SDS011;3376;42.664;23.346;2023-04-01T13:18:51;3.97;;;3.67;;
6679;SDS011;3376;42.664;23.346;2023-04-01T13:21:25;4.93;;;2.83;;
6679;SDS011;3376;42.664;23.346;2023-04-01T13:24:03;5.10;;;2.97;;
6679;SDS011;3376;42.664;23.346;2023-04-01T13:26:39;4.00;;;3.57;;
6679;SDS011;3376;42.664;23.346;2023-04-01T13:29:18;3.33;;;2.90;;
6679;SDS011;3376;42.664;23.346;2023-04-01T13:31:51;4.37;;;2.60;;
6679;SDS011;3376;42.664;23.346;2023-04-01T13:34:35;3.73;;;2.83;;
6679;SDS011;3376;42.664;23.346;2023-04-01T13:37:17;3.43;;;2.43;;
6679;SDS011;3376;42.664;23.346;2023-04-01T13:40:00;9.30;;;2.63;;
6679;SDS011;3376;42.664;23.346;2023-04-01T13:42:41;2.40;;;2.20;;
6679;SDS011;3376;42.664;23.346;2023-04-01T13:45:14;2.67;;;2.47;;
6679;SDS011;3376;42.664;23.346;2023-04-01T13:47:51;2.63;;;2.43;;
6679;SDS011;3376;42.664;23.346;2023-04-01T13:50:49;2.73;;;2.63;;
6679;SDS011;3376;42.664;23.346;2023-04-01T13:53:29;2.20;;;2.00;;
6679;SDS011;3376;42.664;23.346;2023-04-01T13:56:32;2.63;;;2.43;;
6679;SDS011;3376;42.664;23.346;2023-04-01T14:02:14;4.43;;;3.00;;
6679;SDS011;3376;42.664;23.346;2023-04-01T14:04:59;3.33;;;2.37;;
6679;SDS011;3376;42.664;23.346;2023-04-01T14:07:55;3.30;;;3.00;;
6679;SDS011;3376;42.664;23.346;2023-04-01T14:10:35;3.80;;;3.50;;
6679;SDS011;3376;42.664;23.346;2023-04-01T14:13:09;3.80;;;3.53;;
6679;SDS011;3376;42.664;23.346;2023-04-01T14:15:50;2.83;;;2.53;;
6679;SDS011;3376;42.664;23.346;2023-04-01T14:21:30;7.70;;;7.10;;
6679;SDS011;3376;42.664;23.346;2023-04-01T14:24:06;8.30;;;7.47;;
6679;SDS011;3376;42.664;23.346;2023-04-01T14:26:56;7.73;;;5.37;;
6679;SDS011;3376;42.664;23.346;2023-04-01T14:29:46;5.77;;;5.37;;
6679;SDS011;3376;42.664;23.346;2023-04-01T14:32:24;5.83;;;5.27;;
6679;SDS011;3376;42.664;23.346;2023-04-01T14:35:09;5.33;;;4.97;;
6679;SDS011;3376;42.664;23.346;2023-04-01T14:41:15;3.80;;;3.53;;
6679;SDS011;3376;42.664;23.346;2023-04-01T14:43:47;3.30;;;2.70;;
6679;SDS011;3376;42.664;23.346;2023-04-01T14:46:35;2.70;;;2.50;;
6679;SDS011;3376;42.664;23.346;2023-04-01T14:49:23;4.83;;;2.40;;
6679;SDS011;3376;42.664;23.346;2023-04-01T14:52:03;3.40;;;3.10;;
6679;SDS011;3376;42.664;23.346;2023-04-01T14:54:32;2.40;;;2.30;;
6679;SDS011;3376;42.664;23.346;2023-04-01T14:57:08;7.80;;;3.37;;
6679;SDS011;3376;42.664;23.346;2023-04-01T14:59:39;3.33;;;2.77;;
6679;SDS011;3376;42.664;23.346;2023-04-01T15:02:14;3.10;;;2.90;;
6679;SDS011;3376;42.664;23.346;2023-04-01T15:05:10;2.93;;;2.73;;
6679;SDS011;3376;42.664;23.346;2023-04-01T15:08:03;2.67;;;2.47;;
6679;SDS011;3376;42.664;23.346;2023-04-01T15:10:47;4.43;;;3.50;;
6679;SDS011;3376;42.664;23.346;2023-04-01T15:13:23;2.83;;;2.50;;
6679;SDS011;3376;42.664;23.346;2023-04-01T15:16:05;2.87;;;2.60;;
6679;SDS011;3376;42.664;23.346;2023-04-01T15:18:44;3.37;;;3.17;;
6679;SDS011;3376;42.664;23.346;2023-04-01T15:21:32;3.57;;;3.27;;
6679;SDS011;3376;42.664;23.346;2023-04-01T15:24:16;3.67;;;3.37;;
6679;SDS011;3376;42.664;23.346;2023-04-01T15:29:56;4.40;;;3.90;;
6679;SDS011;3376;42.664;23.346;2023-04-01T15:32:43;2.80;;;2.60;;
6679;SDS011;3376;42.664;23.346;2023-04-01T15:35:27;3.20;;;2.83;;
6679;SDS011;3376;42.664;23.346;2023-04-01T15:38:05;3.63;;;3.33;;
6679;SDS011;3376;42.664;23.346;2023-04-01T15:40:38;4.50;;;3.43;;
6679;SDS011;3376;42.664;23.346;2023-04-01T15:43:15;3.50;;;3.20;;
6679;SDS011;3376;42.664;23.346;2023-04-01T15:45:56;3.93;;;3.63;;
6679;SDS011;3376;42.664;23.346;2023-04-01T15:48:46;3.93;;;3.53;;
6679;SDS011;3376;42.664;23.346;2023-04-01T15:51:30;3.40;;;3.20;;
6679;SDS011;3376;42.664;23.346;2023-04-01T15:54:27;1.20;;;1.10;;
6679;SDS011;3376;42.664;23.346;2023-04-01T15:57:18;1.47;;;1.20;;
6679;SDS011;3376;42.664;23.346;2023-04-01T15:59:54;1.93;;;1.83;;
6679;SDS011;3376;42.664;23.346;2023-04-01T16:02:33;1.50;;;1.50;;
6679;SDS011;3376;42.664;23.346;2023-04-01T16:05:08;1.97;;;1.50;;
6679;SDS011;3376;42.664;23.346;2023-04-01T16:07:53;2.20;;;2.10;;
6679;SDS011;3376;42.664;23.346;2023-04-01T16:13:28;3.03;;;2.90;;
6679;SDS011;3376;42.664;23.346;2023-04-01T16:16:09;3.10;;;2.60;;
6679;SDS011;3376;42.664;23.346;2023-04-01T16:18:53;2.93;;;2.57;;
6679;SDS011;3376;42.664;23.346;2023-04-01T16:21:35;2.67;;;2.47;;
6679;SDS011;3376;42.664;23.346;2023-04-01T16:24:15;2.83;;;2.67;;
6679;SDS011;3376;42.664;23.346;2023-04-01T16:26:50;2.53;;;2.43;;
6679;SDS011;3376;42.664;23.346;2023-04-01T16:29:24;2.97;;;2.77;;
6679;SDS011;3376;42.664;23.346;2023-04-01T16:32:11;3.20;;;3.03;;
6679;SDS011;3376;42.664;23.346;2023-04-01T16:34:44;2.90;;;2.80;;
6679;SDS011;3376;42.664;23.346;2023-04-01T16:37:21;2.23;;;2.03;;
6679;SDS011;3376;42.664;23.346;2023-04-01T16:40:03;2.33;;;2.23;;
6679;SDS011;3376;42.664;23.346;2023-04-01T16:42:43;2.37;;;2.27;;
6679;SDS011;3376;42.664;23.346;2023-04-01T16:45:17;2.63;;;2.47;;
6679;SDS011;3376;42.664;23.346;2023-04-01T16:47:53;2.37;;;2.27;;
6679;SDS011;3376;42.664;23.346;2023-04-01T16:50:23;2.07;;;1.97;;
6679;SDS011;3376;42.664;23.346;2023-04-01T16:52:54;1.60;;;1.60;;
6679;SDS011;3376;42.664;23.346;2023-04-01T16:55:35;1.50;;;1.50;;
6679;SDS011;3376;42.664;23.346;2023-04-01T16:58:08;2.00;;;1.90;;
6679;SDS011;3376;42.664;23.346;2023-04-01T17:00:41;1.97;;;1.87;;
6679;SDS011;3376;42.664;23.346;2023-04-01T17:03:16;1.33;;;1.33;;
6679;SDS011;3376;42.664;23.346;2023-04-01T17:05:49;1.40;;;1.40;;
6679;SDS011;3376;42.664;23.346;2023-04-01T17:11:19;0.80;;;0.80;;
6679;SDS011;3376;42.664;23.346;2023-04-01T17:13:52;1.23;;;1.23;;
6679;SDS011;3376;42.664;23.346;2023-04-01T17:16:40;0.97;;;0.97;;
6679;SDS011;3376;42.664;23.346;2023-04-01T17:19:24;1.00;;;1.00;;
6679;SDS011;3376;42.664;23.346;2023-04-01T17:22:04;1.10;;;1.10;;
6679;SDS011;3376;42.664;23.346;2023-04-01T17:24:43;1.20;;;1.20;;
6679;SDS011;3376;42.664;23.346;2023-04-01T17:27:23;1.30;;;1.20;;
6679;SDS011;3376;42.664;23.346;2023-04-01T17:30:13;1.20;;;1.10;;
6679;SDS011;3376;42.664;23.346;2023-04-01T17:35:48;1.33;;;1.33;;
6679;SDS011;3376;42.664;23.346;2023-04-01T17:38:34;0.90;;;0.90;;